sensor_id;sensor_type;location;lat;lon;timestamp;pressure;altitude;pressure_sealevel;temperature;humidity
42691;BME280;28306;55.744;37.578;2023-02-28T00:00:23;100277.75;;;25.70;17.95
42691;BME280;28306;55.744;37.578;2023-02-28T00:02:48;100269.31;;;25.72;17.91
42691;BME280;28306;55.744;37.578;2023-02-28T00:05:15;100268.50;;;25.71;17.81
42691;BME280;28306;55.744;37.578;2023-02-28T00:07:41;100264.72;;;25.72;17.71
42691;BME280;28306;55.744;37.578;2023-02-28T00:10:08;100264.72;;;25.72;17.69
42691;BME280;28306;55.744;37.578;2023-02-28T00:12:34;100268.50;;;25.71;17.85
42691;BME280;28306;55.744;37.578;2023-02-28T00:15:00;100259.53;;;25.71;17.88
42691;BME280;28306;55.744;37.578;2023-02-28T00:17:26;100252.41;;;25.70;17.81
42691;BME280;28306;55.744;37.578;2023-02-28T00:19:51;100246.97;;;25.70;17.94
42691;BME280;28306;55.744;37.578;2023-02-28T00:22:18;100253.50;;;25.69;17.79
42691;BME280;28306;55.744;37.578;2023-02-28T00:24:43;100254.59;;;25.68;18.02
42691;BME280;28306;55.744;37.578;2023-02-28T00:27:09;100246.41;;;25.68;17.93
42691;BME280;28306;55.744;37.578;2023-02-28T00:29:35;100251.88;;;25.68;17.90
42691;BME280;28306;55.744;37.578;2023-02-28T00:32:00;100246.41;;;25.68;17.95
42691;BME280;28306;55.744;37.578;2023-02-28T00:34:26;100257.31;;;25.68;17.76
42691;BME280;28306;55.744;37.578;2023-02-28T00:36:52;100255.66;;;25.67;17.80
42691;BME280;28306;55.744;37.578;2023-02-28T00:39:17;100249.94;;;25.68;17.81
42691;BME280;28306;55.744;37.578;2023-02-28T00:41:43;100244.50;;;25.68;17.83
42691;BME280;28306;55.744;37.578;2023-02-28T00:44:08;100238.22;;;25.68;17.94
42691;BME280;28306;55.744;37.578;2023-02-28T00:46:34;100239.31;;;25.67;17.67
42691;BME280;28306;55.744;37.578;2023-02-28T00:48:59;100235.75;;;25.66;17.74
42691;BME280;28306;55.744;37.578;2023-02-28T00:51:25;100225.94;;;25.65;17.75
42691;BME280;28306;55.744;37.578;2023-02-28T00:53:50;100229.75;;;25.64;18.06
42691;BME280;28306;55.744;37.578;2023-02-28T00:56:16;100229.75;;;25.64;17.75
42691;BME280;28306;55.744;37.578;2023-02-28T00:58:41;100226.44;;;25.62;17.87
42691;BME280;28306;55.744;37.578;2023-02-28T01:01:07;100217.47;;;25.62;17.85
42691;BME280;28306;55.744;37.578;2023-02-28T01:03:32;100206.56;;;25.62;17.97
42691;BME280;28306;55.744;37.578;2023-02-28T01:05:58;100206.81;;;25.60;17.89
42691;BME280;28306;55.744;37.578;2023-02-28T01:08:23;100218.78;;;25.59;17.76
42691;BME280;28306;55.744;37.578;2023-02-28T01:10:49;100206.00;;;25.60;17.75
42691;BME280;28306;55.744;37.578;2023-02-28T01:13:15;100198.91;;;25.59;17.68
42691;BME280;28306;55.744;37.578;2023-02-28T01:15:41;100187.19;;;25.58;17.81
42691;BME280;28306;55.744;37.578;2023-02-28T01:18:08;100182.53;;;25.59;17.74
42691;BME280;28306;55.744;37.578;2023-02-28T01:20:36;100172.47;;;25.59;17.83
42691;BME280;28306;55.744;37.578;2023-02-28T01:23:02;100169.72;;;25.59;17.91
42691;BME280;28306;55.744;37.578;2023-02-28T01:25:27;100164.28;;;25.59;17.89
42691;BME280;28306;55.744;37.578;2023-02-28T01:27:52;100157.75;;;25.60;17.98
42691;BME280;28306;55.744;37.578;2023-02-28T01:30:18;100155.84;;;25.61;17.82
42691;BME280;28306;55.744;37.578;2023-02-28T01:32:45;100146.06;;;25.60;18.11
42691;BME280;28306;55.744;37.578;2023-02-28T01:35:11;100153.13;;;25.61;17.96
42691;BME280;28306;55.744;37.578;2023-02-28T01:37:37;100151.25;;;25.61;18.11
42691;BME280;28306;55.744;37.578;2023-02-28T01:40:03;100141.16;;;25.62;17.78
42691;BME280;28306;55.744;37.578;2023-02-28T01:42:28;100140.09;;;25.63;18.15
42691;BME280;28306;55.744;37.578;2023-02-28T01:47:40;100130.00;;;25.63;18.02
42691;BME280;28306;55.744;37.578;2023-02-28T01:50:09;100123.47;;;25.64;17.86
42691;BME280;28306;55.744;37.578;2023-02-28T01:52:37;100111.75;;;25.64;17.99
42691;BME280;28306;55.744;37.578;2023-02-28T01:55:02;100108.19;;;25.63;17.87
42691;BME280;28306;55.744;37.578;2023-02-28T01:57:33;100112.59;;;25.64;17.76
42691;BME280;28306;55.744;37.578;2023-02-28T02:00:05;100115.31;;;25.64;18.09
42691;BME280;28306;55.744;37.578;2023-02-28T02:02:46;100101.94;;;25.63;17.77
42691;BME280;28306;55.744;37.578;2023-02-28T02:05:18;100098.38;;;25.62;17.78
42691;BME280;28306;55.744;37.578;2023-02-28T02:07:45;100088.88;;;25.65;17.92
42691;BME280;28306;55.744;37.578;2023-02-28T02:10:20;100092.66;;;25.64;17.84
42691;BME280;28306;55.744;37.578;2023-02-28T02:15:16;100083.69;;;25.63;18.02
42691;BME280;28306;55.744;37.578;2023-02-28T02:17:45;100085.59;;;25.63;18.06
42691;BME280;28306;55.744;37.578;2023-02-28T02:25:53;100085.59;;;25.63;17.96
42691;BME280;28306;55.744;37.578;2023-02-28T02:36:40;100065.94;;;25.61;17.87
42691;BME280;28306;55.744;37.578;2023-02-28T02:41:39;100055.03;;;25.61;17.85
42691;BME280;28306;55.744;37.578;2023-02-28T02:44:28;100061.31;;;25.61;17.82
42691;BME280;28306;55.744;37.578;2023-02-28T02:46:54;100055.03;;;25.61;17.81
42691;BME280;28306;55.744;37.578;2023-02-28T02:49:28;100037.06;;;25.60;17.92
42691;BME280;28306;55.744;37.578;2023-02-28T02:51:55;100044.41;;;25.59;17.85
42691;BME280;28306;55.744;37.578;2023-02-28T02:54:24;100034.59;;;25.58;17.83
42691;BME280;28306;55.744;37.578;2023-02-28T02:56:54;100037.88;;;25.60;17.71
42691;BME280;28306;55.744;37.578;2023-02-28T02:59:22;100032.69;;;25.59;17.85
42691;BME280;28306;55.744;37.578;2023-02-28T03:01:50;100023.69;;;25.58;17.85
42691;BME280;28306;55.744;37.578;2023-02-28T03:04:17;100017.16;;;25.59;17.82
42691;BME280;28306;55.744;37.578;2023-02-28T03:06:44;100015.25;;;25.60;17.89
42691;BME280;28306;55.744;37.578;2023-02-28T03:09:09;100010.63;;;25.60;17.68
42691;BME280;28306;55.744;37.578;2023-02-28T03:11:35;100006.25;;;25.59;17.82
42691;BME280;28306;55.744;37.578;2023-02-28T03:26:58;99979.25;;;25.58;17.97
42691;BME280;28306;55.744;37.578;2023-02-28T03:29:39;99979.00;;;25.59;17.84
42691;BME280;28306;55.744;37.578;2023-02-28T03:32:17;99967.28;;;25.59;17.92
42691;BME280;28306;55.744;37.578;2023-02-28T03:34:48;99966.47;;;25.58;18.03
42691;BME280;28306;55.744;37.578;2023-02-28T03:37:19;99970.03;;;25.59;18.02
42691;BME280;28306;55.744;37.578;2023-02-28T03:39:47;99945.50;;;25.59;17.74
42691;BME280;28306;55.744;37.578;2023-02-28T03:42:15;99950.13;;;25.58;17.89
42691;BME280;28306;55.744;37.578;2023-02-28T03:44:53;99949.28;;;25.58;17.75
42691;BME280;28306;55.744;37.578;2023-02-28T03:47:28;99942.22;;;25.57;17.79
42691;BME280;28306;55.744;37.578;2023-02-28T03:50:02;99943.31;;;25.56;17.69
42691;BME280;28306;55.744;37.578;2023-02-28T03:52:31;99940.31;;;25.57;17.86
42691;BME280;28306;55.744;37.578;2023-02-28T03:55:00;99937.59;;;25.57;17.95
42691;BME280;28306;55.744;37.578;2023-02-28T03:57:37;99934.06;;;25.57;17.88
42691;BME280;28306;55.744;37.578;2023-02-28T04:02:37;99916.88;;;25.56;17.99
42691;BME280;28306;55.744;37.578;2023-02-28T04:05:05;99907.88;;;25.56;17.99
42691;BME280;28306;55.744;37.578;2023-02-28T04:07:30;99907.88;;;25.56;17.70
42691;BME280;28306;55.744;37.578;2023-02-28T04:09:56;99899.16;;;25.53;17.95
42691;BME280;28306;55.744;37.578;2023-02-28T04:12:22;99892.34;;;25.56;17.98
42691;BME280;28306;55.744;37.578;2023-02-28T04:14:48;99895.06;;;25.56;18.04
42691;BME280;28306;55.744;37.578;2023-02-28T04:17:14;99885.28;;;25.55;17.70
42691;BME280;28306;55.744;37.578;2023-02-28T04:19:40;99893.44;;;25.55;17.69
42691;BME280;28306;55.744;37.578;2023-02-28T04:22:05;99896.16;;;25.55;17.86
42691;BME280;28306;55.744;37.578;2023-02-28T04:24:31;99893.44;;;25.55;17.86
42691;BME280;28306;55.744;37.578;2023-02-28T04:26:56;99886.91;;;25.56;17.86
42691;BME280;28306;55.744;37.578;2023-02-28T04:29:29;99891.28;;;25.57;17.82
42691;BME280;28306;55.744;37.578;2023-02-28T04:31:55;99882.53;;;25.55;17.64
42691;BME280;28306;55.744;37.578;2023-02-28T04:34:25;99867.81;;;25.56;17.62
42691;BME280;28306;55.744;37.578;2023-02-28T04:36:50;99876.84;;;25.57;17.86
42691;BME280;28306;55.744;37.578;2023-02-28T04:39:18;99867.00;;;25.56;17.66
42691;BME280;28306;55.744;37.578;2023-02-28T04:41:44;99871.38;;;25.57;17.78
42691;BME280;28306;55.744;37.578;2023-02-28T04:44:10;99859.66;;;25.56;17.95
42691;BME280;28306;55.744;37.578;2023-02-28T04:46:36;99849.84;;;25.55;17.70
42691;BME280;28306;55.744;37.578;2023-02-28T04:49:01;99851.47;;;25.56;17.69
42691;BME280;28306;55.744;37.578;2023-02-28T04:51:27;99845.22;;;25.56;17.66
42691;BME280;28306;55.744;37.578;2023-02-28T04:53:52;99839.78;;;25.56;17.71
42691;BME280;28306;55.744;37.578;2023-02-28T04:56:18;99833.25;;;25.57;17.84
42691;BME280;28306;55.744;37.578;2023-02-28T04:58:44;99841.41;;;25.57;17.64
42691;BME280;28306;55.744;37.578;2023-02-28T05:01:17;99835.13;;;25.56;17.71
42691;BME280;28306;55.744;37.578;2023-02-28T05:03:43;99828.59;;;25.57;17.74
42691;BME280;28306;55.744;37.578;2023-02-28T05:06:09;99826.97;;;25.56;17.71
42691;BME280;28306;55.744;37.578;2023-02-28T05:08:35;99814.97;;;25.57;17.68
42691;BME280;28306;55.744;37.578;2023-02-28T05:11:01;99813.06;;;25.58;17.75
42691;BME280;28306;55.744;37.578;2023-02-28T05:13:27;99796.72;;;25.58;17.54
42691;BME280;28306;55.744;37.578;2023-02-28T05:15:52;99798.38;;;25.59;17.64
42691;BME280;28306;55.744;37.578;2023-02-28T05:18:18;99792.66;;;25.60;17.67
42691;BME280;28306;55.744;37.578;2023-02-28T05:20:43;99793.19;;;25.62;17.74
42691;BME280;28306;55.744;37.578;2023-02-28T05:23:13;99780.69;;;25.61;17.77
42691;BME280;28306;55.744;37.578;2023-02-28T05:25:38;99777.97;;;25.61;17.75
42691;BME280;28306;55.744;37.578;2023-02-28T05:28:04;99778.78;;;25.62;17.57
42691;BME280;28306;55.744;37.578;2023-02-28T05:30:30;99768.69;;;25.62;17.69
42691;BME280;28306;55.744;37.578;2023-02-28T05:32:57;99765.69;;;25.64;17.75
42691;BME280;28306;55.744;37.578;2023-02-28T05:35:22;99745.00;;;25.63;17.83
42691;BME280;28306;55.744;37.578;2023-02-28T05:37:48;99751.00;;;25.65;17.66
42691;BME280;28306;55.744;37.578;2023-02-28T05:40:13;99733.81;;;25.64;17.88
42691;BME280;28306;55.744;37.578;2023-02-28T05:42:40;99737.38;;;25.65;17.56
42691;BME280;28306;55.744;37.578;2023-02-28T05:45:06;99737.38;;;25.65;17.64
42691;BME280;28306;55.744;37.578;2023-02-28T05:47:32;99733.56;;;25.66;17.61
42691;BME280;28306;55.744;37.578;2023-02-28T05:49:57;99723.47;;;25.66;17.82
42691;BME280;28306;55.744;37.578;2023-02-28T05:52:23;99712.56;;;25.66;17.60
42691;BME280;28306;55.744;37.578;2023-02-28T05:54:48;99725.13;;;25.67;17.53
42691;BME280;28306;55.744;37.578;2023-02-28T05:57:14;99710.66;;;25.67;17.55
42691;BME280;28306;55.744;37.578;2023-02-28T05:59:39;99706.03;;;25.67;17.68
42691;BME280;28306;55.744;37.578;2023-02-28T06:02:15;99696.75;;;25.68;17.68
42691;BME280;28306;55.744;37.578;2023-02-28T06:04:41;99699.22;;;25.70;17.69
42691;BME280;28306;55.744;37.578;2023-02-28T06:07:07;99691.84;;;25.70;17.71
42691;BME280;28306;55.744;37.578;2023-02-28T06:09:33;99676.34;;;25.71;17.81
42691;BME280;28306;55.744;37.578;2023-02-28T06:11:59;99672.50;;;25.72;17.71
42691;BME280;28306;55.744;37.578;2023-02-28T06:14:25;99665.44;;;25.71;17.58
42691;BME280;28306;55.744;37.578;2023-02-28T06:16:50;99672.78;;;25.70;17.60
42691;BME280;28306;55.744;37.578;2023-02-28T06:19:16;99670.06;;;25.70;17.29
42691;BME280;28306;55.744;37.578;2023-02-28T06:21:42;99661.88;;;25.70;17.42
42691;BME280;28306;55.744;37.578;2023-02-28T06:24:07;99655.34;;;25.71;17.39
42691;BME280;28306;55.744;37.578;2023-02-28T06:26:33;99645.81;;;25.74;17.33
42691;BME280;28306;55.744;37.578;2023-02-28T06:28:58;99632.19;;;25.74;17.55
42691;BME280;28306;55.744;37.578;2023-02-28T06:31:25;99621.31;;;25.74;17.87
42691;BME280;28306;55.744;37.578;2023-02-28T06:33:51;99626.75;;;25.74;17.65
42691;BME280;28306;55.744;37.578;2023-02-28T06:36:17;99635.72;;;25.75;17.62
42691;BME280;28306;55.744;37.578;2023-02-28T06:38:43;99625.38;;;25.77;17.75
42691;BME280;28306;55.744;37.578;2023-02-28T06:41:09;99623.75;;;25.76;17.54
42691;BME280;28306;55.744;37.578;2023-02-28T06:43:36;99615.56;;;25.76;17.86
42691;BME280;28306;55.744;37.578;2023-02-28T06:46:02;99603.56;;;25.77;17.51
42691;BME280;28306;55.744;37.578;2023-02-28T06:48:28;99605.22;;;25.78;17.66
42691;BME280;28306;55.744;37.578;2023-02-28T06:51:04;99598.69;;;25.79;17.86
42691;BME280;28306;55.744;37.578;2023-02-28T06:53:30;99568.72;;;25.79;17.94
42691;BME280;28306;55.744;37.578;2023-02-28T06:55:56;99567.59;;;25.80;18.34
42691;BME280;28306;55.744;37.578;2023-02-28T06:58:21;99556.41;;;25.81;18.62
42691;BME280;28306;55.744;37.578;2023-02-28T07:00:50;99549.88;;;25.82;18.87
42691;BME280;28306;55.744;37.578;2023-02-28T07:03:16;99538.19;;;25.82;18.57
42691;BME280;28306;55.744;37.578;2023-02-28T07:05:42;99532.47;;;25.83;18.31
42691;BME280;28306;55.744;37.578;2023-02-28T07:08:08;99516.91;;;25.84;18.32
42691;BME280;28306;55.744;37.578;2023-02-28T07:10:33;99515.81;;;25.85;18.37
42691;BME280;28306;55.744;37.578;2023-02-28T07:12:59;99520.44;;;25.84;18.41
42691;BME280;28306;55.744;37.578;2023-02-28T07:15:25;99512.00;;;25.86;18.74
42691;BME280;28306;55.744;37.578;2023-02-28T07:17:50;99506.53;;;25.86;19.13
42691;BME280;28306;55.744;37.578;2023-02-28T07:20:16;99506.00;;;25.89;19.36
42691;BME280;28306;55.744;37.578;2023-02-28T07:22:42;99494.81;;;25.90;19.20
42691;BME280;28306;55.744;37.578;2023-02-28T07:25:08;99490.47;;;25.89;19.45
42691;BME280;28306;55.744;37.578;2023-02-28T07:27:33;99490.19;;;25.91;20.20
42691;BME280;28306;55.744;37.578;2023-02-28T07:29:59;99494.53;;;25.92;20.14
42691;BME280;28306;55.744;37.578;2023-02-28T07:32:27;99495.66;;;25.91;19.55
42691;BME280;28306;55.744;37.578;2023-02-28T07:34:52;99487.47;;;25.91;19.41
42691;BME280;28306;55.744;37.578;2023-02-28T07:37:18;99482.81;;;25.92;19.53
42691;BME280;28306;55.744;37.578;2023-02-28T07:39:44;99479.81;;;25.93;18.96
42691;BME280;28306;55.744;37.578;2023-02-28T07:42:09;99463.47;;;25.93;19.01
42691;BME280;28306;55.744;37.578;2023-02-28T07:44:40;99447.13;;;25.93;18.98
42691;BME280;28306;55.744;37.578;2023-02-28T07:47:08;99455.81;;;25.95;19.14
42691;BME280;28306;55.744;37.578;2023-02-28T07:49:34;99450.38;;;25.95;19.19
42691;BME280;28306;55.744;37.578;2023-02-28T07:52:00;99452.00;;;25.96;19.67
42691;BME280;28306;55.744;37.578;2023-02-28T07:54:25;99448.25;;;25.97;19.85
42691;BME280;28306;55.744;37.578;2023-02-28T07:56:50;99459.13;;;25.97;19.14
42691;BME280;28306;55.744;37.578;2023-02-28T07:59:16;99448.25;;;25.97;18.36
42691;BME280;28306;55.744;37.578;2023-02-28T08:01:41;99439.47;;;25.95;17.68
42691;BME280;28306;55.744;37.578;2023-02-28T08:04:09;99443.31;;;25.94;17.76
42691;BME280;28306;55.744;37.578;2023-02-28T08:06:35;99448.75;;;25.94;18.09
42691;BME280;28306;55.744;37.578;2023-02-28T08:09:00;99453.09;;;25.95;17.94
42691;BME280;28306;55.744;37.578;2023-02-28T08:11:26;99434.59;;;25.97;18.15
42691;BME280;28306;55.744;37.578;2023-02-28T08:13:51;99428.59;;;26.00;18.01
42691;BME280;28306;55.744;37.578;2023-02-28T08:16:17;99413.56;;;26.03;17.94
42691;BME280;28306;55.744;37.578;2023-02-28T08:18:47;99411.66;;;26.03;17.85
42691;BME280;28306;55.744;37.578;2023-02-28T08:21:13;99410.56;;;26.04;17.98
42691;BME280;28306;55.744;37.578;2023-02-28T08:23:38;99402.13;;;26.06;17.96
42691;BME280;28306;55.744;37.578;2023-02-28T08:26:04;99393.94;;;26.06;17.87
42691;BME280;28306;55.744;37.578;2023-02-28T08:28:30;99378.38;;;26.06;18.07
42691;BME280;28306;55.744;37.578;2023-02-28T08:30:55;99384.41;;;26.08;17.93
42691;BME280;28306;55.744;37.578;2023-02-28T08:33:21;99371.84;;;26.07;17.74
42691;BME280;28306;55.744;37.578;2023-02-28T08:35:48;99367.47;;;26.06;18.00
42691;BME280;28306;55.744;37.578;2023-02-28T08:38:13;99369.13;;;26.07;18.01
42691;BME280;28306;55.744;37.578;2023-02-28T08:40:38;99425.56;;;26.07;18.19
42691;BME280;28306;55.744;37.578;2023-02-28T08:43:04;99430.75;;;26.03;18.56
42691;BME280;28306;55.744;37.578;2023-02-28T08:45:29;99432.13;;;26.01;18.37
42691;BME280;28306;55.744;37.578;2023-02-28T08:47:55;99419.88;;;25.98;18.47
42691;BME280;28306;55.744;37.578;2023-02-28T08:50:21;99424.75;;;25.96;18.34
42691;BME280;28306;55.744;37.578;2023-02-28T08:52:46;99433.22;;;25.95;18.32
42691;BME280;28306;55.744;37.578;2023-02-28T08:55:12;99423.66;;;25.92;18.47
42691;BME280;28306;55.744;37.578;2023-02-28T08:57:38;99422.06;;;25.91;18.16
42691;BME280;28306;55.744;37.578;2023-02-28T09:00:03;99407.59;;;25.90;18.25
42691;BME280;28306;55.744;37.578;2023-02-28T09:02:30;99421.22;;;25.90;18.18
42691;BME280;28306;55.744;37.578;2023-02-28T09:04:55;99408.97;;;25.88;17.84
42691;BME280;28306;55.744;37.578;2023-02-28T09:07:21;99408.44;;;25.86;17.05
42691;BME280;28306;55.744;37.578;2023-02-28T09:09:46;99392.63;;;25.83;17.12
42691;BME280;28306;55.744;37.578;2023-02-28T09:12:24;99380.91;;;25.82;17.42
42691;BME280;28306;55.744;37.578;2023-02-28T09:14:50;99364.84;;;25.81;17.34
42691;BME280;28306;55.744;37.578;2023-02-28T09:17:16;99364.84;;;25.81;17.72
42691;BME280;28306;55.744;37.578;2023-02-28T09:19:41;99367.56;;;25.81;17.49
42691;BME280;28306;55.744;37.578;2023-02-28T09:22:08;99360.47;;;25.80;17.58
42691;BME280;28306;55.744;37.578;2023-02-28T09:24:35;99346.84;;;25.80;17.53
42691;BME280;28306;55.744;37.578;2023-02-28T09:27:00;99354.22;;;25.79;17.76
42691;BME280;28306;55.744;37.578;2023-02-28T09:29:26;99351.22;;;25.81;17.58
42691;BME280;28306;55.744;37.578;2023-02-28T09:31:51;99366.75;;;25.80;17.93
42691;BME280;28306;55.744;37.578;2023-02-28T09:34:17;99373.81;;;25.81;17.93
42691;BME280;28306;55.744;37.578;2023-02-28T09:36:42;99374.66;;;25.82;17.58
42691;BME280;28306;55.744;37.578;2023-02-28T09:39:08;99368.09;;;25.83;17.73
42691;BME280;28306;55.744;37.578;2023-02-28T09:41:41;99365.38;;;25.83;17.52
42691;BME280;28306;55.744;37.578;2023-02-28T09:44:16;99371.66;;;25.83;17.76
42691;BME280;28306;55.744;37.578;2023-02-28T09:46:44;99355.59;;;25.82;17.46
42691;BME280;28306;55.744;37.578;2023-02-28T09:49:13;99342.75;;;25.82;17.49
42691;BME280;28306;55.744;37.578;2023-02-28T09:51:44;99333.50;;;25.83;17.56
42691;BME280;28306;55.744;37.578;2023-02-28T09:54:15;99307.06;;;25.84;17.43
42691;BME280;28306;55.744;37.578;2023-02-28T09:56:45;99329.41;;;25.81;17.39
42691;BME280;28306;55.744;37.578;2023-02-28T10:04:09;99319.34;;;25.76;17.61
42691;BME280;28306;55.744;37.578;2023-02-28T10:06:46;99310.38;;;25.76;17.64
42691;BME280;28306;55.744;37.578;2023-02-28T10:09:24;99314.72;;;25.77;17.54
42691;BME280;28306;55.744;37.578;2023-02-28T10:11:52;99317.44;;;25.77;17.57
42691;BME280;28306;55.744;37.578;2023-02-28T10:14:19;99301.09;;;25.77;17.60
42691;BME280;28306;55.744;37.578;2023-02-28T10:16:59;99293.47;;;25.79;17.67
42691;BME280;28306;55.744;37.578;2023-02-28T10:19:32;99266.50;;;25.77;17.48
42691;BME280;28306;55.744;37.578;2023-02-28T10:22:01;99280.94;;;25.78;17.60
42691;BME280;28306;55.744;37.578;2023-02-28T10:24:30;99277.13;;;25.79;17.50
42691;BME280;28306;55.744;37.578;2023-02-28T10:27:01;99274.66;;;25.77;17.74
42691;BME280;28306;55.744;37.578;2023-02-28T10:29:31;99274.38;;;25.79;17.71
42691;BME280;28306;55.744;37.578;2023-02-28T10:31:58;99252.03;;;25.77;17.53
42691;BME280;28306;55.744;37.578;2023-02-28T10:34:26;99260.50;;;25.75;17.64
42691;BME280;28306;55.744;37.578;2023-02-28T10:36:51;99261.31;;;25.76;17.70
42691;BME280;28306;55.744;37.578;2023-02-28T10:42:03;99249.88;;;25.73;17.48
42691;BME280;28306;55.744;37.578;2023-02-28T10:44:28;99261.88;;;25.72;17.88
42691;BME280;28306;55.744;37.578;2023-02-28T10:46:54;99251.78;;;25.73;17.60
42691;BME280;28306;55.744;37.578;2023-02-28T10:49:21;99260.78;;;25.73;17.61
42691;BME280;28306;55.744;37.578;2023-02-28T10:51:49;99244.41;;;25.73;17.49
42691;BME280;28306;55.744;37.578;2023-02-28T10:54:20;99243.09;;;25.71;17.60
42691;BME280;28306;55.744;37.578;2023-02-28T10:57:05;99239.81;;;25.69;17.62
42691;BME280;28306;55.744;37.578;2023-02-28T10:59:31;99233.84;;;25.67;17.59
42691;BME280;28306;55.744;37.578;2023-02-28T11:01:57;99220.22;;;25.67;17.50
42691;BME280;28306;55.744;37.578;2023-02-28T11:09:45;99219.41;;;25.66;17.88
42691;BME280;28306;55.744;37.578;2023-02-28T11:12:29;99225.66;;;25.67;17.54
42691;BME280;28306;55.744;37.578;2023-02-28T11:14:58;99211.25;;;25.66;17.69
42691;BME280;28306;55.744;37.578;2023-02-28T11:17:26;99219.41;;;25.66;17.74
42691;BME280;28306;55.744;37.578;2023-02-28T11:19:54;99221.06;;;25.67;17.61
42691;BME280;28306;55.744;37.578;2023-02-28T11:22:21;99213.69;;;25.68;17.63
42691;BME280;28306;55.744;37.578;2023-02-28T11:24:47;99215.59;;;25.67;17.72
42691;BME280;28306;55.744;37.578;2023-02-28T11:28:00;99206.03;;;25.70;17.75
42691;BME280;28306;55.744;37.578;2023-02-28T11:30:00;99210.69;;;25.69;17.60
42691;BME280;28306;55.744;37.578;2023-02-28T11:32:26;99205.22;;;25.69;17.58
42691;BME280;28306;55.744;37.578;2023-02-28T11:35:04;99186.97;;;25.70;17.80
42691;BME280;28306;55.744;37.578;2023-02-28T11:37:40;99194.88;;;25.66;17.41
42691;BME280;28306;55.744;37.578;2023-02-28T11:40:12;99191.38;;;25.66;17.74
42691;BME280;28306;55.744;37.578;2023-02-28T11:52:53;99176.63;;;25.67;17.67
42691;BME280;28306;55.744;37.578;2023-02-28T11:55:42;99188.34;;;25.67;17.66
42691;BME280;28306;55.744;37.578;2023-02-28T12:01:03;99186.44;;;25.68;17.79
42691;BME280;28306;55.744;37.578;2023-02-28T12:08:32;99163.25;;;25.70;17.80
42691;BME280;28306;55.744;37.578;2023-02-28T12:13:48;99162.16;;;25.71;17.74
42691;BME280;28306;55.744;37.578;2023-02-28T12:19:15;99156.72;;;25.71;17.72
42691;BME280;28306;55.744;37.578;2023-02-28T12:29:05;99148.00;;;25.69;17.65
42691;BME280;28306;55.744;37.578;2023-02-28T12:31:38;99149.09;;;25.68;17.50
42691;BME280;28306;55.744;37.578;2023-02-28T12:34:07;99151.03;;;25.68;17.67
42691;BME280;28306;55.744;37.578;2023-02-28T12:36:35;99142.03;;;25.67;17.69
42691;BME280;28306;55.744;37.578;2023-02-28T12:39:08;99148.28;;;25.68;17.55
42691;BME280;28306;55.744;37.578;2023-02-28T12:41:52;99129.50;;;25.66;17.87
42691;BME280;28306;55.744;37.578;2023-02-28T12:46:51;99127.59;;;25.67;17.73
42691;BME280;28306;55.744;37.578;2023-02-28T12:49:19;99124.88;;;25.67;17.96
42691;BME280;28306;55.744;37.578;2023-02-28T12:51:47;99123.78;;;25.68;17.79
42691;BME280;28306;55.744;37.578;2023-02-28T13:09:25;99082.34;;;25.71;17.82
42691;BME280;28306;55.744;37.578;2023-02-28T13:11:51;99078.78;;;25.70;17.60
42691;BME280;28306;55.744;37.578;2023-02-28T13:14:20;99063.28;;;25.71;17.69
42691;BME280;28306;55.744;37.578;2023-02-28T13:16:51;99076.06;;;25.70;17.85
42691;BME280;28306;55.744;37.578;2023-02-28T13:19:18;99070.59;;;25.70;17.78
42691;BME280;28306;55.744;37.578;2023-02-28T13:21:45;99070.59;;;25.70;17.86
42691;BME280;28306;55.744;37.578;2023-02-28T13:24:11;99074.16;;;25.71;17.71
42691;BME280;28306;55.744;37.578;2023-02-28T13:29:28;99078.78;;;25.70;17.85
42691;BME280;28306;55.744;37.578;2023-02-28T13:42:41;99057.00;;;25.70;17.73
42691;BME280;28306;55.744;37.578;2023-02-28T13:52:48;99044.72;;;25.73;17.71
42691;BME280;28306;55.744;37.578;2023-02-28T14:06:14;99019.91;;;25.75;17.74
42691;BME280;28306;55.744;37.578;2023-02-28T14:09:01;99033.00;;;25.72;17.65
42691;BME280;28306;55.744;37.578;2023-02-28T14:11:36;99043.38;;;25.70;17.65
42691;BME280;28306;55.744;37.578;2023-02-28T14:14:03;99034.66;;;25.68;17.59
42691;BME280;28306;55.744;37.578;2023-02-28T14:19:02;99040.41;;;25.67;17.66
42691;BME280;28306;55.744;37.578;2023-02-28T14:21:32;99039.31;;;25.68;17.87
42691;BME280;28306;55.744;37.578;2023-02-28T14:26:49;99023.50;;;25.70;17.81
42691;BME280;28306;55.744;37.578;2023-02-28T14:29:39;99012.59;;;25.70;17.85
42691;BME280;28306;55.744;37.578;2023-02-28T14:32:19;99012.59;;;25.70;17.89
42691;BME280;28306;55.744;37.578;2023-02-28T14:34:57;98998.16;;;25.69;17.66
42691;BME280;28306;55.744;37.578;2023-02-28T14:37:27;99000.59;;;25.71;17.60
42691;BME280;28306;55.744;37.578;2023-02-28T14:39:54;98993.81;;;25.68;17.63
42691;BME280;28306;55.744;37.578;2023-02-28T14:42:34;99009.34;;;25.68;17.77
42691;BME280;28306;55.744;37.578;2023-02-28T14:45:01;98998.75;;;25.66;18.14
42691;BME280;28306;55.744;37.578;2023-02-28T14:47:33;98994.09;;;25.67;18.69
42691;BME280;28306;55.744;37.578;2023-02-28T14:50:00;98994.09;;;25.67;18.73
42691;BME280;28306;55.744;37.578;2023-02-28T14:52:27;98987.56;;;25.68;19.01
42691;BME280;28306;55.744;37.578;2023-02-28T14:54:54;98985.91;;;25.67;18.80
42691;BME280;28306;55.744;37.578;2023-02-28T14:57:24;98982.69;;;25.65;19.19
42691;BME280;28306;55.744;37.578;2023-02-28T15:02:30;98966.34;;;25.65;19.03
42691;BME280;28306;55.744;37.578;2023-02-28T15:04:57;98975.31;;;25.65;18.87
42691;BME280;28306;55.744;37.578;2023-02-28T15:07:23;98973.13;;;25.67;18.66
42691;BME280;28306;55.744;37.578;2023-02-28T15:13:01;98979.38;;;25.68;18.61